Time;durP1;ratioP1;P1;durP2;ratioP2;P2;SDS_P1;SDS_P2;PMS_P1;PMS_P2;Temp;Humidity;BMP_temperature;BMP_pressure;BME280_temperature;BME280_humidity;BME280_pressure;Samples;Min_cycle;Max_cycle;Signal;HPM_P1;HPM_P2
2023/05/27 00:01:21;;;;;;;7.47;3.88;;;8.50;99.90;;;;;;5155313;27;20558;-74
2023/05/27 00:03:46;;;;;;;8.77;3.92;;;8.50;99.90;;;;;;5155106;27;20054;-74
2023/05/27 00:06:12;;;;;;;7.13;3.88;;;8.50;99.90;;;;;;5155162;27;20138;-75
2023/05/27 00:08:38;;;;;;;8.98;4.30;;;8.50;99.90;;;;;;5155166;27;20050;-74
2023/05/27 00:11:04;;;;;;;6.38;4.40;;;8.50;99.90;;;;;;5155282;27;20042;-75
2023/05/27 00:13:30;;;;;;;9.18;4.28;;;8.50;99.90;;;;;;5155144;27;20115;-75
2023/05/27 00:15:56;;;;;;;8.70;4.30;;;8.40;99.90;;;;;;5154808;27;20043;-74
2023/05/27 00:18:22;;;;;;;9.15;4.35;;;8.40;99.90;;;;;;5137389;27;20054;-74
2023/05/27 00:20:48;;;;;;;8.95;3.42;;;8.30;99.90;;;;;;5136876;27;20042;-76
2023/05/27 00:23:14;;;;;;;10.05;4.68;;;8.30;99.90;;;;;;5137754;27;20050;-75
2023/05/27 00:25:41;;;;;;;8.73;5.35;;;8.20;99.90;;;;;;5137578;27;20043;-74
2023/05/27 00:28:07;;;;;;;9.23;5.15;;;8.20;99.90;;;;;;5156661;27;20091;-74
2023/05/27 00:30:38;;;;;;;6.72;4.03;;;8.20;99.90;;;;;;5155864;27;20038;-76
2023/05/27 00:33:08;;;;;;;4.80;3.45;;;8.10;99.90;;;;;;5154960;27;20043;-74
2023/05/27 00:35:34;;;;;;;10.00;4.57;;;8.10;99.90;;;;;;5119519;27;20119;-75
2023/05/27 00:38:00;;;;;;;6.63;4.38;;;8.00;99.90;;;;;;5115443;27;20480;-75
2023/05/27 00:40:29;;;;;;;8.95;5.15;;;8.00;99.90;;;;;;5132932;27;20051;-75
2023/05/27 00:42:55;;;;;;;7.93;4.00;;;7.90;99.90;;;;;;5134303;27;20147;-75
2023/05/27 00:45:21;;;;;;;9.45;4.47;;;7.90;99.90;;;;;;5134076;27;20459;-76
2023/05/27 00:47:47;;;;;;;7.78;4.15;;;7.90;99.90;;;;;;5133642;27;20046;-75
2023/05/27 00:50:13;;;;;;;7.93;4.55;;;7.80;99.90;;;;;;5133543;27;20039;-76
2023/05/27 00:52:39;;;;;;;9.10;4.43;;;7.80;99.90;;;;;;5116156;27;20043;-76
2023/05/27 00:55:06;;;;;;;8.95;4.43;;;7.80;99.90;;;;;;5099032;27;20422;-76
2023/05/27 00:57:33;;;;;;;11.57;5.10;;;7.70;99.90;;;;;;5133850;27;20104;-76
2023/05/27 00:59:58;;;;;;;6.78;4.40;;;7.60;99.90;;;;;;5115538;27;20481;-75
2023/05/27 01:02:25;;;;;;;6.40;4.65;;;7.60;99.90;;;;;;5132142;27;20054;-76
2023/05/27 01:04:51;;;;;;;10.75;5.22;;;7.50;99.90;;;;;;5133321;27;20139;-77
2023/05/27 01:07:43;;;;;;;11.98;5.47;;;7.50;99.90;;;;;;5115575;28;20043;-75
2023/05/27 01:10:37;;;;;;;10.80;5.28;;;7.50;99.90;;;;;;5115546;27;20122;-74
2023/05/27 01:13:15;;;;;;;5.63;4.22;;;7.50;99.90;;;;;;5133343;27;20051;-75
2023/05/27 01:15:41;;;;;;;7.13;4.25;;;7.50;99.90;;;;;;5115463;28;20073;-74
2023/05/27 01:18:09;;;;;;;8.07;5.15;;;7.50;99.90;;;;;;5132355;28;20039;-75
2023/05/27 01:20:40;;;;;;;10.15;5.78;;;7.50;99.90;;;;;;5115325;28;20036;-74
2023/05/27 01:23:08;;;;;;;10.32;5.00;;;7.40;99.90;;;;;;5133742;27;20042;-76
2023/05/27 01:25:34;;;;;;;13.38;5.57;;;7.40;99.90;;;;;;5132731;28;20130;-76
2023/05/27 01:28:00;;;;;;;6.95;4.43;;;7.40;99.90;;;;;;5115286;28;20509;-75
2023/05/27 01:30:26;;;;;;;7.25;4.20;;;7.30;99.90;;;;;;5132048;28;20075;-75
2023/05/27 01:33:08;;;;;;;9.77;4.75;;;7.30;99.90;;;;;;5133358;27;20047;-75
2023/05/27 01:35:42;;;;;;;11.98;5.18;;;7.40;99.90;;;;;;5132898;27;20489;-74
2023/05/27 01:38:12;;;;;;;13.52;6.25;;;7.30;99.90;;;;;;5131446;28;20458;-74
2023/05/27 01:40:41;;;;;;;12.48;4.65;;;7.30;99.90;;;;;;5133127;27;20047;-74
2023/05/27 01:43:09;;;;;;;8.55;4.57;;;7.40;99.90;;;;;;5132431;28;20081;-75
2023/05/27 01:45:36;;;;;;;9.68;4.28;;;7.40;99.90;;;;;;5132963;27;20099;-74
2023/05/27 01:48:01;;;;;;;11.25;5.13;;;7.50;99.90;;;;;;5132805;27;20083;-75
2023/05/27 01:50:30;;;;;;;10.77;5.43;;;7.50;99.90;;;;;;5114708;28;20086;-75
2023/05/27 01:52:56;;;;;;;15.88;6.28;;;7.50;99.90;;;;;;5131905;28;20055;-74
2023/05/27 01:55:22;;;;;;;12.68;6.10;;;7.60;99.90;;;;;;5133362;27;20046;-74
2023/05/27 01:57:47;;;;;;;12.00;5.97;;;7.60;99.90;;;;;;5133435;27;20043;-74
2023/05/27 02:00:15;;;;;;;10.18;5.55;;;7.70;99.90;;;;;;5133487;27;20043;-76
2023/05/27 02:02:41;;;;;;;11.80;5.65;;;7.60;99.90;;;;;;5133083;27;20191;-74
2023/05/27 02:05:07;;;;;;;12.88;5.53;;;7.60;99.90;;;;;;5132460;27;20553;-75
2023/05/27 02:07:33;;;;;;;13.55;5.20;;;7.70;99.90;;;;;;5114978;28;20114;-75
2023/05/27 02:09:58;;;;;;;9.65;4.22;;;7.70;99.90;;;;;;5132604;28;20031;-74
2023/05/27 02:12:24;;;;;;;12.23;5.68;;;7.70;99.90;;;;;;5132419;27;20095;-75
2023/05/27 02:14:51;;;;;;;8.52;4.35;;;7.80;99.90;;;;;;5135625;27;20049;-74
2023/05/27 02:17:17;;;;;;;10.55;5.15;;;7.80;99.90;;;;;;5136080;27;20462;-76
2023/05/27 02:19:43;;;;;;;8.32;5.38;;;7.80;99.90;;;;;;5136599;27;20036;-74
2023/05/27 02:22:08;;;;;;;11.00;5.32;;;7.90;99.90;;;;;;5135193;27;20084;-74
2023/05/27 02:24:34;;;;;;;10.13;5.10;;;7.90;99.90;;;;;;5136472;27;20050;-74
2023/05/27 02:27:01;;;;;;;9.90;4.78;;;7.90;99.90;;;;;;5136306;27;20039;-74
2023/05/27 02:29:26;;;;;;;10.55;5.05;;;7.90;99.90;;;;;;5118356;27;20494;-74
2023/05/27 02:31:52;;;;;;;9.07;5.03;;;7.90;99.90;;;;;;5135718;27;20171;-74
2023/05/27 02:34:18;;;;;;;7.28;4.75;;;7.90;99.90;;;;;;5135204;27;20122;-76
2023/05/27 02:36:43;;;;;;;10.85;4.97;;;8.00;99.90;;;;;;5134963;27;20186;-76
2023/05/27 02:39:10;;;;;;;8.07;4.85;;;8.00;99.90;;;;;;5135401;27;20058;-75
2023/05/27 02:41:36;;;;;;;13.82;6.07;;;8.00;99.90;;;;;;5135770;27;20082;-74
2023/05/27 02:44:02;;;;;;;14.32;5.68;;;8.00;99.90;;;;;;5134754;27;20100;-74
2023/05/27 02:46:28;;;;;;;16.38;7.35;;;7.00;99.90;;;;;;5136334;27;20103;-76
2023/05/27 02:48:54;;;;;;;14.65;6.90;;;8.30;99.90;;;;;;5135279;27;20051;-75
2023/05/27 02:51:21;;;;;;;10.20;4.63;;;8.40;99.90;;;;;;5134708;27;20481;-75
2023/05/27 02:53:46;;;;;;;18.08;6.22;;;8.40;99.90;;;;;;5136341;27;20071;-74
2023/05/27 02:56:12;;;;;;;9.50;5.40;;;8.50;99.90;;;;;;5136053;27;20436;-74
2023/05/27 02:58:38;;;;;;;12.30;6.07;;;8.60;99.90;;;;;;5135891;27;20123;-74
2023/05/27 03:01:03;;;;;;;9.30;4.50;;;8.60;99.90;;;;;;5135564;27;20054;-75
2023/05/27 03:03:29;;;;;;;14.70;6.65;;;8.70;99.90;;;;;;5135770;27;20051;-75
2023/05/27 03:05:56;;;;;;;15.80;6.15;;;8.70;99.90;;;;;;5135240;27;20130;-74
2023/05/27 03:08:21;;;;;;;12.80;5.32;;;8.80;99.90;;;;;;5136016;27;20047;-74
2023/05/27 03:10:47;;;;;;;14.15;6.03;;;8.80;99.90;;;;;;5136971;27;20039;-75
2023/05/27 03:13:13;;;;;;;10.40;4.97;;;8.90;99.90;;;;;;5135718;27;20047;-76
2023/05/27 03:15:39;;;;;;;11.55;5.80;;;8.90;99.90;;;;;;5135473;27;20121;-75
2023/05/27 03:18:05;;;;;;;14.35;5.72;;;8.90;99.90;;;;;;5134440;27;20188;-75
2023/05/27 03:20:30;;;;;;;11.40;6.63;;;8.90;99.90;;;;;;5135309;27;20046;-74
2023/05/27 03:22:56;;;;;;;16.23;7.28;;;8.90;99.90;;;;;;5134988;27;20047;-74
2023/05/27 03:25:29;;;;;;;13.52;6.45;;;8.90;99.90;;;;;;5133156;27;20043;-75
2023/05/27 03:27:57;;;;;;;15.02;6.05;;;8.90;99.90;;;;;;5135271;27;20039;-74
2023/05/27 03:30:23;;;;;;;11.25;5.85;;;8.90;99.90;;;;;;5135006;27;20043;-74
2023/05/27 03:32:49;;;;;;;15.65;6.30;;;8.90;99.90;;;;;;5134247;27;20122;-75
2023/05/27 03:35:15;;;;;;;19.58;6.80;;;8.80;99.90;;;;;;5133853;27;20047;-76
2023/05/27 03:37:40;;;;;;;13.77;6.90;;;8.80;99.90;;;;;;5146779;27;20123;-74
2023/05/27 03:40:08;;;;;;;11.02;5.70;;;8.80;99.90;;;;;;5157881;27;20451;-74
2023/05/27 03:42:35;;;;;;;17.73;6.07;;;8.80;99.90;;;;;;5140940;27;20050;-75
2023/05/27 03:45:00;;;;;;;16.05;6.25;;;8.80;99.90;;;;;;5158044;27;20043;-75
2023/05/27 03:47:26;;;;;;;8.77;5.03;;;8.80;99.90;;;;;;5156717;27;20057;-75
2023/05/27 03:49:52;;;;;;;13.93;5.15;;;8.80;99.90;;;;;;5137200;27;20121;-75
2023/05/27 03:52:17;;;;;;;12.90;6.20;;;8.80;99.90;;;;;;5156150;27;20047;-76
2023/05/27 03:54:43;;;;;;;9.77;6.32;;;8.80;99.90;;;;;;5155993;27;20470;-75
2023/05/27 03:57:09;;;;;;;12.77;6.22;;;8.80;99.90;;;;;;5137191;27;20470;-76
2023/05/27 03:59:36;;;;;;;13.00;6.20;;;8.70;99.90;;;;;;5155238;27;20051;-74
2023/05/27 04:02:01;;;;;;;13.13;5.95;;;8.80;99.90;;;;;;5102955;27;20041;-75
2023/05/27 04:04:27;;;;;;;10.40;5.25;;;8.80;99.90;;;;;;5155140;27;20113;-75
2023/05/27 04:06:53;;;;;;;9.77;4.28;;;8.90;99.90;;;;;;5137078;27;20038;-75
2023/05/27 04:09:19;;;;;;;9.77;5.30;;;8.90;99.90;;;;;;5136420;27;20592;-75
2023/05/27 04:11:45;;;;;;;10.88;5.97;;;9.00;99.90;;;;;;5154962;27;20369;-75
2023/05/27 04:14:10;;;;;;;11.18;4.63;;;9.00;99.90;;;;;;5154907;27;20046;-74
2023/05/27 04:16:36;;;;;;;16.55;6.97;;;9.00;99.90;;;;;;5136300;27;20125;-76
2023/05/27 04:19:04;;;;;;;11.20;6.25;;;9.10;99.90;;;;;;5136435;27;20030;-75
2023/05/27 04:21:31;;;;;;;11.75;5.55;;;9.10;99.90;;;;;;5136847;27;20050;-74
2023/05/27 04:23:57;;;;;;;11.63;6.60;;;9.10;99.90;;;;;;5136634;27;20046;-74
2023/05/27 04:26:23;;;;;;;10.70;6.07;;;9.10;99.90;;;;;;5136243;27;20517;-74
2023/05/27 04:28:49;;;;;;;12.68;6.53;;;9.10;99.90;;;;;;5136919;27;20062;-75
2023/05/27 04:31:15;;;;;;;9.23;6.03;;;9.20;99.90;;;;;;5154805;27;20054;-74
2023/05/27 04:33:45;;;;;;;18.05;5.68;;;9.20;99.90;;;;;;5136771;27;20141;-75
2023/05/27 04:36:11;;;;;;;12.90;6.13;;;9.30;99.90;;;;;;5136024;27;20043;-75
2023/05/27 04:38:36;;;;;;;13.60;6.00;;;9.40;99.90;;;;;;5154649;27;20470;-75
2023/05/27 04:41:03;;;;;;;11.55;5.80;;;9.50;99.90;;;;;;5136274;27;20092;-75
2023/05/27 04:43:30;;;;;;;18.52;6.53;;;9.60;99.90;;;;;;5154597;27;20428;-75
2023/05/27 04:45:59;;;;;;;15.57;5.68;;;9.70;99.90;;;;;;5135866;27;20443;-75
2023/05/27 04:48:25;;;;;;;12.02;6.05;;;9.80;99.90;;;;;;5154456;27;20107;-76
2023/05/27 04:50:52;;;;;;;18.77;6.63;;;9.80;99.90;;;;;;5154327;27;20477;-75
2023/05/27 04:53:18;;;;;;;14.55;6.47;;;9.80;99.90;;;;;;5136171;27;20046;-75
2023/05/27 04:55:45;;;;;;;16.13;6.57;;;9.90;99.90;;;;;;5136128;27;20054;-75
2023/05/27 04:58:11;;;;;;;11.82;6.10;;;9.90;99.90;;;;;;5154184;27;20106;-74
2023/05/27 05:00:49;;;;;;;16.67;6.32;;;9.90;99.90;;;;;;5136096;27;20129;-76
2023/05/27 05:03:20;;;;;;;14.70;6.18;;;10.00;99.90;;;;;;5154533;27;20064;-74
2023/05/27 05:05:55;;;;;;;10.77;5.53;;;10.00;99.90;;;;;;5154366;27;20050;-75
2023/05/27 05:08:21;;;;;;;10.10;5.80;;;10.00;99.90;;;;;;5136292;27;20375;-73
2023/05/27 05:10:48;;;;;;;12.60;5.63;;;10.10;99.90;;;;;;5154005;27;20082;-74
2023/05/27 05:13:15;;;;;;;15.85;7.15;;;10.10;99.90;;;;;;5154611;27;20537;-74
2023/05/27 05:15:43;;;;;;;13.00;5.68;;;10.20;99.90;;;;;;5135932;27;20048;-75
2023/05/27 05:18:10;;;;;;;15.57;6.63;;;10.20;99.90;;;;;;5135889;27;20093;-74
2023/05/27 05:20:36;;;;;;;11.70;6.18;;;10.20;99.90;;;;;;5136247;27;20484;-75
2023/05/27 05:23:01;;;;;;;17.75;6.75;;;10.30;99.90;;;;;;5135640;27;20043;-74
2023/05/27 05:25:29;;;;;;;17.50;6.15;;;10.30;99.90;;;;;;5153885;27;20118;-74
2023/05/27 05:27:55;;;;;;;14.90;6.88;;;10.30;99.90;;;;;;5136064;27;20055;-74
2023/05/27 05:30:21;;;;;;;13.75;7.18;;;10.30;99.90;;;;;;5154279;27;20478;-75
2023/05/27 05:32:46;;;;;;;15.10;5.32;;;10.30;99.90;;;;;;5154036;27;20114;-74
2023/05/27 05:35:12;;;;;;;15.85;5.80;;;10.40;99.90;;;;;;5154013;27;20038;-74
2023/05/27 05:37:38;;;;;;;14.32;6.13;;;10.40;99.90;;;;;;5154010;27;20057;-75
2023/05/27 05:40:04;;;;;;;13.68;5.85;;;10.50;99.90;;;;;;5136257;27;20065;-73
2023/05/27 05:42:30;;;;;;;18.92;6.75;;;10.60;99.90;;;;;;5154286;27;20047;-75
2023/05/27 05:44:55;;;;;;;14.10;5.72;;;10.60;99.90;;;;;;5153925;27;20107;-76
2023/05/27 05:47:21;;;;;;;11.93;6.75;;;10.70;99.90;;;;;;5154433;27;20043;-76
2023/05/27 05:49:47;;;;;;;14.80;5.78;;;10.70;99.90;;;;;;5157820;27;20049;-75
2023/05/27 05:52:12;;;;;;;15.82;5.45;;;10.70;99.90;;;;;;5157919;27;20091;-75
2023/05/27 05:54:38;;;;;;;12.90;6.35;;;10.70;99.90;;;;;;5158034;27;20038;-75
2023/05/27 05:57:05;;;;;;;15.43;6.50;;;10.70;99.90;;;;;;5158221;27;20049;-74
2023/05/27 05:59:31;;;;;;;14.43;6.38;;;10.70;99.90;;;;;;5158003;27;20179;-75
2023/05/27 06:01:57;;;;;;;14.35;6.38;;;10.70;99.90;;;;;;5139234;27;20054;-76
2023/05/27 06:04:23;;;;;;;14.65;6.63;;;10.60;99.90;;;;;;5139959;27;20039;-75
2023/05/27 06:06:48;;;;;;;14.73;6.40;;;10.70;99.90;;;;;;5157662;27;20360;-75
2023/05/27 06:09:14;;;;;;;10.65;5.97;;;10.70;99.90;;;;;;5122313;27;20042;-75
2023/05/27 06:11:40;;;;;;;14.40;7.32;;;10.70;99.90;;;;;;5157585;27;20543;-75
2023/05/27 06:14:07;;;;;;;12.88;6.40;;;10.80;99.90;;;;;;5138950;27;20050;-75
2023/05/27 06:16:35;;;;;;;17.38;6.30;;;10.80;99.90;;;;;;5139417;27;20065;-75
2023/05/27 06:19:01;;;;;;;13.88;6.35;;;10.90;99.90;;;;;;5158017;27;20435;-76
2023/05/27 06:21:26;;;;;;;16.58;7.10;;;11.00;99.90;;;;;;5157308;27;20045;-75
2023/05/27 06:23:52;;;;;;;13.48;5.93;;;11.00;99.90;;;;;;5156996;27;20125;-77
2023/05/27 06:26:18;;;;;;;12.07;6.43;;;11.40;99.90;;;;;;5139274;27;20046;-76
2023/05/27 06:28:43;;;;;;;16.65;7.28;;;12.30;99.90;;;;;;5157188;27;20126;-77
2023/05/27 06:31:09;;;;;;;16.90;6.90;;;13.50;99.90;;;;;;5156928;27;20054;-77
2023/05/27 06:33:35;;;;;;;15.90;6.82;;;14.60;99.90;;;;;;5139038;27;20465;-77
2023/05/27 06:36:01;;;;;;;16.20;6.40;;;15.70;99.90;;;;;;5157272;27;20051;-76
2023/05/27 06:38:26;;;;;;;15.70;7.32;;;16.60;99.90;;;;;;5156526;27;20051;-78
2023/05/27 06:40:52;;;;;;;16.30;6.75;;;17.00;99.90;;;;;;5156847;27;20528;-74
2023/05/27 06:43:18;;;;;;;14.57;5.30;;;17.30;99.90;;;;;;5156797;27;20439;-77
2023/05/27 06:45:43;;;;;;;15.10;6.68;;;17.60;99.90;;;;;;5156800;27;20047;-76
2023/05/27 06:48:09;;;;;;;13.23;5.65;;;17.90;99.90;;;;;;5156847;27;20047;-77
2023/05/27 06:50:35;;;;;;;11.02;4.82;;;18.20;99.90;;;;;;5156764;27;20039;-75
2023/05/27 06:53:00;;;;;;;16.08;5.47;;;18.10;99.90;;;;;;5157887;27;20055;-76
2023/05/27 06:55:26;;;;;;;10.13;4.53;;;18.80;99.90;;;;;;5157977;27;20043;-76
2023/05/27 06:57:52;;;;;;;13.95;5.07;;;19.40;99.90;;;;;;5157709;27;20167;-76
2023/05/27 07:00:18;;;;;;;11.82;4.70;;;19.50;99.90;;;;;;5157506;27;20046;-73
2023/05/27 07:02:43;;;;;;;10.40;4.50;;;19.40;99.90;;;;;;5156678;27;20039;-73
2023/05/27 07:05:09;;;;;;;14.75;4.68;;;18.30;99.90;;;;;;5137995;27;20046;-73
2023/05/27 07:07:35;;;;;;;13.60;4.85;;;17.50;99.90;;;;;;5156839;27;20458;-74
2023/05/27 07:10:00;;;;;;;16.23;5.72;;;16.90;99.90;;;;;;5156747;27;20042;-73
2023/05/27 07:12:26;;;;;;;9.75;4.80;;;16.60;99.90;;;;;;5155977;27;20057;-73
2023/05/27 07:14:52;;;;;;;13.05;4.85;;;16.40;99.90;;;;;;5156233;27;20043;-73
2023/05/27 07:17:17;;;;;;;7.72;4.10;;;16.20;99.90;;;;;;5138074;27;20120;-73
2023/05/27 07:19:43;;;;;;;13.05;4.90;;;16.70;99.90;;;;;;5137426;27;20504;-73
2023/05/27 07:22:09;;;;;;;14.77;4.80;;;17.70;99.90;;;;;;5156381;27;20046;-74
2023/05/27 07:24:34;;;;;;;9.85;4.05;;;18.30;99.90;;;;;;5156160;27;20501;-73
2023/05/27 07:27:00;;;;;;;11.90;5.13;;;18.90;99.90;;;;;;5137753;27;20126;-73
2023/05/27 07:29:26;;;;;;;13.55;5.05;;;19.40;99.90;;;;;;5155889;27;20049;-73
2023/05/27 07:31:52;;;;;;;9.35;4.28;;;19.80;99.90;;;;;;5155974;27;20049;-74
2023/05/27 07:34:18;;;;;;;10.75;4.97;;;20.10;99.60;;;;;;5138442;27;20046;-74
2023/05/27 07:36:43;;;;;;;12.02;4.90;;;20.20;98.30;;;;;;5156209;27;20348;-73
2023/05/27 07:39:09;;;;;;;12.25;4.32;;;20.20;97.90;;;;;;5155973;27;20107;-73
2023/05/27 07:41:35;;;;;;;11.77;5.18;;;19.70;97.80;;;;;;5120767;27;20050;-75
2023/05/27 07:44:01;;;;;;;13.80;3.97;;;20.20;98.10;;;;;;5137518;27;20091;-73
2023/05/27 07:46:26;;;;;;;10.07;4.40;;;20.30;97.80;;;;;;5156449;27;20110;-73
2023/05/27 07:48:52;;;;;;;18.15;5.35;;;20.70;97.40;;;;;;5137556;27;20047;-74
2023/05/27 07:51:18;;;;;;;13.88;5.28;;;21.20;96.00;;;;;;5156077;27;20043;-74
2023/05/27 07:53:43;;;;;;;11.32;4.68;;;20.80;95.10;;;;;;5155526;27;20081;-74
2023/05/27 07:56:09;;;;;;;11.82;4.88;;;20.10;95.90;;;;;;5137142;27;20043;-74
2023/05/27 07:58:35;;;;;;;7.82;3.97;;;19.90;96.40;;;;;;5155518;27;20093;-73
2023/05/27 08:01:00;;;;;;;8.40;3.95;;;20.20;96.30;;;;;;5155244;27;20039;-73
2023/05/27 08:03:26;;;;;;;10.13;4.70;;;20.60;96.50;;;;;;5155230;27;20047;-73
2023/05/27 08:05:52;;;;;;;10.27;5.13;;;21.00;96.30;;;;;;5155716;27;20049;-74
2023/05/27 08:08:17;;;;;;;9.13;4.95;;;21.40;95.60;;;;;;5155243;27;20050;-74
2023/05/27 08:10:44;;;;;;;11.35;4.38;;;21.30;95.30;;;;;;5154178;27;20110;-74
2023/05/27 08:13:10;;;;;;;8.98;4.00;;;21.60;95.30;;;;;;5155135;27;20103;-74
2023/05/27 08:15:35;;;;;;;12.25;4.75;;;22.10;94.60;;;;;;5154821;27;20042;-74
2023/05/27 08:18:01;;;;;;;12.73;5.15;;;22.50;93.90;;;;;;5155723;27;20049;-74
2023/05/27 08:20:27;;;;;;;16.10;5.20;;;22.00;93.20;;;;;;5154622;27;20082;-74
2023/05/27 08:22:53;;;;;;;10.95;4.53;;;21.90;94.10;;;;;;5154753;27;20054;-74
2023/05/27 08:25:19;;;;;;;8.80;4.75;;;21.30;94.20;;;;;;5154826;27;20042;-73
2023/05/27 08:27:54;;;;;;;8.18;4.43;;;21.30;94.60;;;;;;5154360;27;20119;-74
2023/05/27 08:30:21;;;;;;;11.15;3.90;;;21.70;94.10;;;;;;5154892;27;20125;-74
2023/05/27 08:32:46;;;;;;;8.98;4.25;;;21.90;94.10;;;;;;5154848;27;20517;-73
2023/05/27 08:35:12;;;;;;;9.20;4.18;;;22.40;93.70;;;;;;5154805;27;20046;-73
2023/05/27 08:37:38;;;;;;;12.23;4.70;;;22.40;93.60;;;;;;5154535;27;20047;-74
2023/05/27 08:40:10;;;;;;;8.45;3.95;;;22.90;92.50;;;;;;5136560;27;20050;-74
2023/05/27 08:42:36;;;;;;;9.38;4.30;;;22.80;92.00;;;;;;5154688;27;20091;-74
2023/05/27 08:45:03;;;;;;;8.18;5.05;;;23.40;92.80;;;;;;5154622;27;20034;-74
2023/05/27 08:47:32;;;;;;;10.38;4.32;;;23.40;92.00;;;;;;5154503;27;20043;-74
2023/05/27 08:50:01;;;;;;;11.18;4.50;;;22.90;91.60;;;;;;5154687;27;20042;-74
2023/05/27 08:52:28;;;;;;;10.50;4.50;;;22.60;92.20;;;;;;5154353;27;20130;-73
2023/05/27 08:54:58;;;;;;;12.82;4.47;;;22.70;91.50;;;;;;5154506;27;20065;-74
2023/05/27 08:57:31;;;;;;;9.07;4.38;;;22.40;91.50;;;;;;5154198;27;20382;-71
2023/05/27 08:59:57;;;;;;;11.07;5.00;;;22.50;91.80;;;;;;5154331;27;20504;-72
2023/05/27 09:02:24;;;;;;;12.80;4.88;;;22.80;91.80;;;;;;5154812;27;20061;-71
2023/05/27 09:04:50;;;;;;;10.90;4.55;;;23.20;91.60;;;;;;5136182;27;20057;-70
2023/05/27 09:07:17;;;;;;;11.88;4.55;;;23.50;91.10;;;;;;5154077;27;20051;-71
2023/05/27 09:09:53;;;;;;;9.25;4.53;;;23.90;90.50;;;;;;5118602;27;20043;-71
2023/05/27 09:12:23;;;;;;;9.38;4.80;;;23.90;90.20;;;;;;5154831;27;20070;-69
2023/05/27 09:14:53;;;;;;;10.30;4.90;;;24.10;89.40;;;;;;5154536;27;20061;-72
2023/05/27 09:17:22;;;;;;;11.70;5.65;;;24.00;88.70;;;;;;5154474;27;20047;-72
2023/05/27 09:19:49;;;;;;;11.38;5.47;;;24.00;89.00;;;;;;5153935;27;20117;-73
2023/05/27 09:22:30;;;;;;;10.65;3.67;;;24.10;89.10;;;;;;5136885;27;20473;-73
2023/05/27 09:24:56;;;;;;;13.75;4.97;;;24.10;88.70;;;;;;5158687;27;20485;-72
2023/05/27 09:27:29;;;;;;;7.28;4.20;;;24.20;88.50;;;;;;5158784;27;20050;-72
2023/05/27 09:29:56;;;;;;;10.60;4.68;;;24.40;86.90;;;;;;5158001;27;20402;-72
2023/05/27 09:32:27;;;;;;;7.55;4.18;;;24.10;87.10;;;;;;5158275;27;20039;-72
2023/05/27 09:34:56;;;;;;;11.20;4.53;;;24.30;85.30;;;;;;5158442;27;20407;-72
2023/05/27 09:37:40;;;;;;;11.45;4.75;;;24.30;87.30;;;;;;5157985;27;20103;-72
2023/05/27 09:40:08;;;;;;;9.55;4.78;;;24.40;85.40;;;;;;5158137;27;20536;-73
2023/05/27 09:42:47;;;;;;;9.13;4.72;;;24.30;86.50;;;;;;5158130;27;20043;-73
2023/05/27 09:45:14;;;;;;;9.80;4.40;;;24.30;85.60;;;;;;5122871;27;20129;-73
2023/05/27 09:47:50;;;;;;;6.13;4.15;;;24.60;86.10;;;;;;5140261;27;20054;-73
2023/05/27 09:50:17;;;;;;;11.02;5.47;;;24.60;85.80;;;;;;5157726;27;20038;-73
2023/05/27 09:52:47;;;;;;;8.82;4.45;;;24.60;85.80;;;;;;5157741;27;20042;-72
2023/05/27 09:55:14;;;;;;;8.38;4.10;;;24.60;84.50;;;;;;5139540;27;20078;-72
2023/05/27 09:57:40;;;;;;;12.23;4.80;;;24.30;84.80;;;;;;5158334;27;20057;-74
2023/05/27 10:00:17;;;;;;;9.57;4.50;;;23.80;85.20;;;;;;5158125;27;20049;-73
2023/05/27 10:02:45;;;;;;;10.73;4.40;;;23.10;86.40;;;;;;5158710;27;20078;-73
2023/05/27 10:05:12;;;;;;;9.70;4.28;;;23.30;85.80;;;;;;5142755;27;20348;-73
2023/05/27 10:07:44;;;;;;;13.80;4.35;;;23.50;84.70;;;;;;5160438;27;20053;-73
2023/05/27 10:10:11;;;;;;;10.05;4.65;;;23.80;85.70;;;;;;5160455;27;20043;-72
2023/05/27 10:12:42;;;;;;;10.07;4.22;;;23.60;85.80;;;;;;5158033;27;20082;-73
2023/05/27 10:15:08;;;;;;;8.35;4.18;;;23.40;85.70;;;;;;5157316;27;20046;-73
2023/05/27 10:17:48;;;;;;;7.70;4.75;;;23.50;86.80;;;;;;5157292;27;20043;-73
2023/05/27 10:20:34;;;;;;;7.13;3.95;;;23.20;84.90;;;;;;5157571;27;20042;-73
2023/05/27 10:23:21;;;;;;;10.65;4.82;;;23.40;84.50;;;;;;5157828;27;20369;-73
2023/05/27 10:25:48;;;;;;;11.32;4.45;;;23.20;84.10;;;;;;5157387;27;20042;-73
2023/05/27 10:28:27;;;;;;;10.43;4.70;;;23.50;87.00;;;;;;5138979;27;20395;-73
2023/05/27 10:30:53;;;;;;;9.82;4.78;;;23.30;84.60;;;;;;5139131;27;20053;-72
2023/05/27 10:33:35;;;;;;;9.13;4.30;;;23.20;86.20;;;;;;5156852;27;20046;-73
2023/05/27 10:36:11;;;;;;;8.65;4.18;;;22.90;85.50;;;;;;5156964;27;20046;-73
2023/05/27 10:38:38;;;;;;;9.73;4.68;;;23.20;86.10;;;;;;5156878;27;20058;-73
2023/05/27 10:41:06;;;;;;;9.77;4.78;;;23.50;85.60;;;;;;5156882;27;20051;-72
2023/05/27 10:43:33;;;;;;;10.27;4.80;;;23.40;85.50;;;;;;5157237;27;20045;-72
2023/05/27 10:46:03;;;;;;;9.30;5.35;;;23.40;85.10;;;;;;5156740;27;20046;-72
2023/05/27 10:48:30;;;;;;;11.25;4.13;;;23.30;85.40;;;;;;5157017;27;20085;-73
2023/05/27 10:50:57;;;;;;;11.57;4.80;;;23.30;85.30;;;;;;5156543;27;20035;-72
2023/05/27 10:53:26;;;;;;;10.82;4.50;;;22.90;85.60;;;;;;5156606;27;20051;-72
2023/05/27 10:55:52;;;;;;;11.27;5.00;;;23.00;86.00;;;;;;5156633;27;20582;-73
2023/05/27 10:58:19;;;;;;;7.32;4.80;;;22.80;85.50;;;;;;5138191;27;20082;-73
2023/05/27 11:00:49;;;;;;;13.85;4.78;;;22.40;86.00;;;;;;5138257;27;20047;-74
2023/05/27 11:03:22;;;;;;;12.27;5.15;;;22.10;86.40;;;;;;5156755;27;20057;-74
2023/05/27 11:05:57;;;;;;;14.48;4.72;;;21.70;87.00;;;;;;5157096;27;20108;-74
2023/05/27 11:08:23;;;;;;;9.13;5.20;;;21.40;86.70;;;;;;5156398;27;20083;-73
2023/05/27 11:10:49;;;;;;;14.07;5.43;;;21.50;87.30;;;;;;5156171;27;20039;-74
2023/05/27 11:13:15;;;;;;;13.48;5.30;;;21.20;86.70;;;;;;5156241;27;20051;-74
2023/05/27 11:15:41;;;;;;;8.82;4.97;;;21.20;87.20;;;;;;5156389;27;20035;-73
2023/05/27 11:18:08;;;;;;;14.02;6.20;;;21.10;87.30;;;;;;5156134;27;20086;-73
2023/05/27 11:20:37;;;;;;;9.77;5.38;;;20.80;87.50;;;;;;5155962;27;20031;-75
2023/05/27 11:23:03;;;;;;;12.07;5.90;;;20.70;88.30;;;;;;5156264;27;20095;-72
2023/05/27 11:25:40;;;;;;;9.13;5.93;;;20.60;87.80;;;;;;5137936;27;20122;-72
2023/05/27 11:28:19;;;;;;;9.38;5.30;;;20.90;88.10;;;;;;5156526;27;20043;-72
2023/05/27 11:30:44;;;;;;;16.63;6.80;;;20.80;87.90;;;;;;5155750;27;20043;-73
2023/05/27 11:33:10;;;;;;;9.40;5.30;;;20.90;87.30;;;;;;5155528;27;20042;-73
2023/05/27 11:35:36;;;;;;;13.32;5.07;;;21.10;86.60;;;;;;5155973;27;20099;-72
2023/05/27 11:38:02;;;;;;;12.18;5.38;;;21.20;86.80;;;;;;5136979;27;20108;-73
2023/05/27 11:40:36;;;;;;;11.35;5.38;;;21.20;87.50;;;;;;5155575;27;20064;-72
2023/05/27 11:43:02;;;;;;;17.00;5.10;;;21.00;89.10;;;;;;5155714;27;20094;-72
2023/05/27 11:45:28;;;;;;;15.02;5.93;;;21.20;88.70;;;;;;5154840;27;20129;-72
2023/05/27 11:47:55;;;;;;;9.50;5.60;;;21.00;88.10;;;;;;5155484;27;20546;-73
2023/05/27 11:50:21;;;;;;;14.48;5.85;;;21.10;87.90;;;;;;5154693;27;20473;-72
2023/05/27 11:52:54;;;;;;;13.90;5.80;;;21.30;87.40;;;;;;5137325;27;20050;-72
2023/05/27 11:55:20;;;;;;;12.15;6.05;;;21.30;87.50;;;;;;5155740;27;20081;-73
2023/05/27 11:57:46;;;;;;;9.75;5.95;;;21.20;87.60;;;;;;5137377;27;20042;-73
2023/05/27 12:00:13;;;;;;;12.02;5.68;;;21.40;88.30;;;;;;5155056;27;20343;-73
2023/05/27 12:02:38;;;;;;;9.85;5.22;;;21.40;87.60;;;;;;5154999;27;20047;-73
2023/05/27 12:05:07;;;;;;;9.23;5.75;;;21.40;88.30;;;;;;5154918;27;20046;-73
2023/05/27 12:07:33;;;;;;;13.80;6.22;;;21.50;88.10;;;;;;5136939;27;20487;-73
2023/05/27 12:09:59;;;;;;;15.68;6.03;;;21.40;88.50;;;;;;5154890;27;20114;-73
2023/05/27 12:12:25;;;;;;;11.43;5.78;;;21.40;89.10;;;;;;5155384;27;20256;-72
2023/05/27 12:14:50;;;;;;;10.18;5.90;;;21.50;88.50;;;;;;5155329;27;20469;-72
2023/05/27 12:17:16;;;;;;;11.13;5.43;;;21.50;88.00;;;;;;5155242;27;20047;-71
2023/05/27 12:19:42;;;;;;;8.27;6.03;;;21.30;88.70;;;;;;5155032;27;20035;-72
2023/05/27 12:22:07;;;;;;;12.82;5.57;;;21.40;89.30;;;;;;5154709;27;20377;-72
2023/05/27 12:24:34;;;;;;;12.98;6.03;;;21.50;88.90;;;;;;5155174;27;20049;-72
2023/05/27 12:27:00;;;;;;;12.77;7.05;;;21.40;89.30;;;;;;5119939;27;20520;-72
2023/05/27 12:29:27;;;;;;;11.25;6.65;;;21.50;88.60;;;;;;5154922;27;20051;-72
2023/05/27 12:31:52;;;;;;;10.55;5.43;;;21.50;87.80;;;;;;5154663;27;20042;-72
2023/05/27 12:34:18;;;;;;;12.23;6.00;;;21.70;88.20;;;;;;5153852;27;20039;-72
2023/05/27 12:36:44;;;;;;;13.85;5.78;;;21.80;87.90;;;;;;5154688;27;20042;-72
2023/05/27 12:39:09;;;;;;;12.73;7.28;;;22.00;87.60;;;;;;5154024;27;20482;-72
2023/05/27 12:41:36;;;;;;;12.10;6.85;;;21.80;87.60;;;;;;5135817;27;20157;-72
2023/05/27 12:44:02;;;;;;;12.13;5.93;;;21.90;87.30;;;;;;5136806;27;20097;-71